createdAt,value
2019-04-01T00:02:19.559Z,26.83
2019-04-01T00:04:46.948Z,29.67
2019-04-01T00:07:14.288Z,25.07
2019-04-01T00:09:41.672Z,30.23
2019-04-01T00:12:08.998Z,31.20
2019-04-01T00:14:36.318Z,37.03
2019-04-01T00:17:03.635Z,30.90
2019-04-01T00:19:30.994Z,25.00
2019-04-01T00:21:58.322Z,24.23
2019-04-01T00:24:25.647Z,30.37
2019-04-01T00:26:53.048Z,23.30
2019-04-01T00:29:20.441Z,25.50
2019-04-01T00:31:47.843Z,26.40
2019-04-01T00:34:15.157Z,21.87
2019-04-01T00:36:42.653Z,22.60
2019-04-01T00:39:09.961Z,21.93
2019-04-01T00:41:38.959Z,20.27
2019-04-01T00:44:08.056Z,19.70
2019-04-01T00:46:35.446Z,23.37
2019-04-01T00:49:02.824Z,22.00
2019-04-01T00:51:30.179Z,23.27
2019-04-01T00:53:57.490Z,20.03
2019-04-01T00:56:24.846Z,24.53
2019-04-01T00:58:52.146Z,19.37
2019-04-01T01:01:19.477Z,24.43
2019-04-01T01:03:46.868Z,18.87
2019-04-01T01:06:14.470Z,20.90
2019-04-01T01:08:41.856Z,20.17
2019-04-01T01:11:09.303Z,17.43
2019-04-01T01:13:36.604Z,23.17
2019-04-01T01:16:03.932Z,19.67
2019-04-01T01:18:31.249Z,20.67
2019-04-01T01:20:58.577Z,20.47
2019-04-01T01:23:25.912Z,22.67
2019-04-01T01:25:53.221Z,21.03
2019-04-01T01:28:20.562Z,18.37
2019-04-01T01:30:48.027Z,19.33
2019-04-01T01:33:15.437Z,13.63
2019-04-01T01:35:42.759Z,20.80
2019-04-01T01:38:10.090Z,21.43
2019-04-01T01:40:37.499Z,17.30
2019-04-01T01:43:04.801Z,23.27
2019-04-01T01:45:32.167Z,17.97
2019-04-01T01:47:59.503Z,22.77
2019-04-01T01:50:26.816Z,21.13
2019-04-01T01:52:54.149Z,22.90
2019-04-01T01:55:21.468Z,23.90
2019-04-01T01:57:48.840Z,20.00
2019-04-01T02:00:16.517Z,20.93
2019-04-01T02:02:43.931Z,26.87
2019-04-01T02:05:11.269Z,22.03
2019-04-01T02:07:38.593Z,26.03
2019-04-01T02:10:06.000Z,26.53
2019-04-01T02:12:33.358Z,21.83
2019-04-01T02:15:00.696Z,18.37
2019-04-01T02:17:28.067Z,18.20
2019-04-01T02:19:55.494Z,14.03
2019-04-01T02:22:22.875Z,17.10
2019-04-01T02:24:50.239Z,18.87
2019-04-01T02:27:17.559Z,19.43
2019-04-01T02:29:44.945Z,25.47
2019-04-01T02:32:12.285Z,15.80
2019-04-01T02:34:39.669Z,14.13
2019-04-01T02:37:07.013Z,14.77
2019-04-01T02:39:34.331Z,16.20
2019-04-01T02:42:01.742Z,16.50
2019-04-01T02:44:29.050Z,15.33
2019-04-01T02:46:56.463Z,10.60
2019-04-01T02:49:23.879Z,15.30
2019-04-01T02:51:51.242Z,11.73
2019-04-01T02:54:18.583Z,10.70
2019-04-01T02:56:45.921Z,13.00
2019-04-01T02:59:13.255Z,15.57
2019-04-01T03:01:40.609Z,16.40
2019-04-01T03:04:07.949Z,12.17
2019-04-01T03:06:35.272Z,14.37
2019-04-01T03:09:03.971Z,13.50
2019-04-01T03:11:31.380Z,16.03
2019-04-01T03:13:58.777Z,12.60
2019-04-01T03:16:26.088Z,13.90
2019-04-01T03:18:53.448Z,13.70
2019-04-01T03:21:20.744Z,9.73
2019-04-01T03:23:48.060Z,14.47
2019-04-01T03:26:15.396Z,15.87
2019-04-01T03:28:42.711Z,19.57
2019-04-01T03:31:10.386Z,14.23
2019-04-01T03:33:37.735Z,15.23
2019-04-01T03:36:05.187Z,14.70
2019-04-01T03:38:32.566Z,17.47
2019-04-01T03:41:00.003Z,13.10
2019-04-01T03:43:27.415Z,12.00
2019-04-01T03:45:54.863Z,15.17
2019-04-01T03:48:22.119Z,12.90
2019-04-01T03:50:49.519Z,15.17
2019-04-01T03:53:16.872Z,16.37
2019-04-01T03:55:44.221Z,15.47
2019-04-01T03:58:11.549Z,11.23
2019-04-01T04:00:38.906Z,13.10
2019-04-01T04:03:06.231Z,9.47
2019-04-01T04:05:33.547Z,17.73
2019-04-01T04:08:00.973Z,10.83
2019-04-01T04:10:28.271Z,9.13
2019-04-01T04:12:55.719Z,12.33
2019-04-01T04:15:23.093Z,15.00
2019-04-01T04:17:50.533Z,13.00
2019-04-01T04:20:17.904Z,15.37
2019-04-01T04:22:45.256Z,15.50
2019-04-01T04:25:12.678Z,17.10
2019-04-01T04:27:39.988Z,11.60
2019-04-01T04:30:07.336Z,13.70
2019-04-01T04:32:34.721Z,15.97
2019-04-01T04:35:02.174Z,12.13
2019-04-01T04:37:29.543Z,14.73
2019-04-01T04:39:56.950Z,14.17
2019-04-01T04:42:24.260Z,13.17
2019-04-01T04:44:51.683Z,15.70
2019-04-01T04:47:19.044Z,14.60
2019-04-01T04:49:46.421Z,11.90
2019-04-01T04:52:13.884Z,14.87
2019-04-01T04:54:41.232Z,12.03
2019-04-01T04:57:08.695Z,14.23
2019-04-01T04:59:36.084Z,11.83
2019-04-01T05:02:03.515Z,15.13
2019-04-01T05:04:30.857Z,12.20
2019-04-01T05:06:58.207Z,17.40
2019-04-01T05:09:25.576Z,14.70
2019-04-01T05:11:52.923Z,18.77
2019-04-01T05:14:20.286Z,17.30
2019-04-01T05:16:47.598Z,20.70
2019-04-01T05:19:15.039Z,16.40
2019-04-01T05:21:42.487Z,16.43
2019-04-01T05:24:09.951Z,19.90
2019-04-01T05:26:37.456Z,17.23
2019-04-01T05:29:04.790Z,15.13
2019-04-01T05:31:32.318Z,17.90
2019-04-01T05:33:59.702Z,16.27
2019-04-01T05:36:27.013Z,15.37
2019-04-01T05:38:54.380Z,15.63
2019-04-01T05:41:21.802Z,18.70
2019-04-01T05:43:49.081Z,18.07
2019-04-01T05:46:16.439Z,16.53
2019-04-01T05:48:43.763Z,18.33
2019-04-01T05:51:11.113Z,18.63
2019-04-01T05:53:38.437Z,17.40
2019-04-01T05:56:06.434Z,22.93
2019-04-01T05:58:33.775Z,16.53
2019-04-01T06:01:02.747Z,18.03
2019-04-01T06:03:30.199Z,16.17
2019-04-01T06:05:57.494Z,24.20
2019-04-01T06:08:24.845Z,25.07
2019-04-01T06:10:52.166Z,17.80
2019-04-01T06:13:19.569Z,21.23
2019-04-01T06:15:47.059Z,16.63
2019-04-01T06:18:14.391Z,14.87
2019-04-01T06:20:41.805Z,18.80
2019-04-01T06:23:09.177Z,22.03
2019-04-01T06:25:36.496Z,21.77
2019-04-01T06:28:03.909Z,15.63
2019-04-01T06:30:31.225Z,15.93
2019-04-01T06:32:58.575Z,12.40
2019-04-01T06:35:26.018Z,12.77
2019-04-01T06:37:53.342Z,12.67
2019-04-01T06:40:20.771Z,17.80
2019-04-01T06:42:48.178Z,10.83
2019-04-01T06:45:15.495Z,14.50
2019-04-01T06:47:42.816Z,6.40
2019-04-01T06:50:10.271Z,8.50
2019-04-01T06:52:37.597Z,13.80
2019-04-01T06:55:05.601Z,15.80
2019-04-01T06:57:32.917Z,10.10
2019-04-01T07:00:00.363Z,14.30
2019-04-01T07:02:27.736Z,8.80
2019-04-01T07:04:55.047Z,10.90
2019-04-01T07:07:22.481Z,7.23
2019-04-01T07:09:50.800Z,6.83
2019-04-01T07:12:18.447Z,7.97
2019-04-01T07:14:45.787Z,8.57
2019-04-01T07:17:13.213Z,11.37
2019-04-01T07:19:40.585Z,4.00
2019-04-01T07:22:07.932Z,13.37
2019-04-01T07:24:35.275Z,9.17
2019-04-01T07:27:02.593Z,8.60
2019-04-01T07:29:29.966Z,9.80
2019-04-01T07:31:57.294Z,8.37
2019-04-01T07:34:24.743Z,10.57
2019-04-01T07:36:52.119Z,7.43
2019-04-01T07:39:19.433Z,8.97
2019-04-01T07:41:46.770Z,5.60
2019-04-01T07:44:14.158Z,7.13
2019-04-01T07:46:41.541Z,6.57
2019-04-01T07:49:09.004Z,3.50
2019-04-01T07:51:38.416Z,5.40
2019-04-01T07:54:05.472Z,5.60
2019-04-01T07:56:32.882Z,6.33
2019-04-01T07:59:00.600Z,5.73
2019-04-01T08:01:27.948Z,8.83
2019-04-01T08:03:55.371Z,5.07
2019-04-01T08:06:22.744Z,6.67
2019-04-01T08:08:50.090Z,9.30
2019-04-01T08:11:17.444Z,6.13
2019-04-01T08:13:45.910Z,4.33
2019-04-01T08:16:13.302Z,4.40
2019-04-01T08:18:40.623Z,4.50
2019-04-01T08:21:07.946Z,7.43
2019-04-01T08:23:35.322Z,6.90
2019-04-01T08:26:02.654Z,4.27
2019-04-01T08:28:30.176Z,9.83
2019-04-01T08:30:57.466Z,2.17
2019-04-01T08:33:24.823Z,6.80
2019-04-01T08:35:52.142Z,2.03
2019-04-01T08:38:19.497Z,6.47
2019-04-01T08:40:46.902Z,7.03
2019-04-01T08:43:14.310Z,5.73
2019-04-01T08:45:41.686Z,4.27
2019-04-01T08:48:09.016Z,4.47
2019-04-01T08:50:37.408Z,5.00
2019-04-01T08:53:04.720Z,6.60
2019-04-01T08:55:32.038Z,1.77
2019-04-01T08:57:59.435Z,6.37
2019-04-01T09:00:26.749Z,6.70
2019-04-01T09:02:54.220Z,5.27
2019-04-01T09:05:21.567Z,3.03
2019-04-01T09:07:49.048Z,2.10
2019-04-01T09:10:16.400Z,3.50
2019-04-01T09:12:43.817Z,7.87
2019-04-01T09:15:11.146Z,4.53
2019-04-01T09:17:40.435Z,3.77
2019-04-01T09:20:07.577Z,4.70
2019-04-01T09:22:34.917Z,5.23
2019-04-01T09:25:02.298Z,5.73
2019-04-01T09:27:29.634Z,4.10
2019-04-01T09:29:56.952Z,3.53
2019-04-01T09:32:24.281Z,7.53
2019-04-01T09:34:51.777Z,5.67
2019-04-01T09:37:19.159Z,6.00
2019-04-01T09:39:46.593Z,6.00
2019-04-01T09:42:14.107Z,3.53
2019-04-01T09:44:41.446Z,7.03
2019-04-01T09:47:08.827Z,6.57
2019-04-01T09:49:36.100Z,5.37
2019-04-01T09:52:03.971Z,11.33
2019-04-01T09:54:31.627Z,8.83
2019-04-01T09:56:58.939Z,5.87
2019-04-01T09:59:26.411Z,5.60
2019-04-01T10:01:53.789Z,3.90
2019-04-01T10:04:21.120Z,6.70
2019-04-01T10:06:48.450Z,5.80
2019-04-01T10:09:15.828Z,6.00
2019-04-01T10:11:43.283Z,7.53
2019-04-01T10:14:10.586Z,5.97
2019-04-01T10:16:37.951Z,9.03
2019-04-01T10:19:05.378Z,7.23
2019-04-01T10:21:32.822Z,9.97
2019-04-01T10:24:00.218Z,6.90
2019-04-01T10:26:27.646Z,5.47
2019-04-01T10:28:55.115Z,5.00
2019-04-01T10:31:22.527Z,5.13
2019-04-01T10:33:49.872Z,7.07
2019-04-01T10:36:17.225Z,7.67
2019-04-01T10:38:46.693Z,6.73
2019-04-01T10:41:14.074Z,5.40
2019-04-01T10:43:41.397Z,6.10
2019-04-01T10:46:12.102Z,7.47
2019-04-01T10:48:37.900Z,7.60
2019-04-01T10:51:05.408Z,6.47
2019-04-01T10:53:32.925Z,7.63
2019-04-01T10:56:00.347Z,7.60
2019-04-01T10:58:27.846Z,7.90
2019-04-01T11:00:55.083Z,6.63
2019-04-01T11:03:22.455Z,7.17
2019-04-01T11:05:49.750Z,10.13
2019-04-01T11:08:17.399Z,8.20
2019-04-01T11:10:44.788Z,10.30
2019-04-01T11:13:12.145Z,5.40
2019-04-01T11:15:39.553Z,5.40
2019-04-01T11:18:07.105Z,6.07
2019-04-01T11:20:34.475Z,5.13
2019-04-01T11:23:02.813Z,13.03
2019-04-01T11:25:31.031Z,4.63
2019-04-01T11:27:58.397Z,8.57
2019-04-01T11:30:25.711Z,5.90
2019-04-01T11:32:53.062Z,6.17
2019-04-01T11:35:20.415Z,6.37
2019-04-01T11:37:47.759Z,10.23
2019-04-01T11:40:15.168Z,6.40
2019-04-01T11:42:42.584Z,8.70
2019-04-01T11:45:09.926Z,5.93
2019-04-01T11:47:37.318Z,5.67
2019-04-01T11:50:05.732Z,6.20
2019-04-01T11:52:33.032Z,7.00
2019-04-01T11:55:00.464Z,12.73
2019-04-01T11:57:28.060Z,8.43
2019-04-01T11:59:55.473Z,5.33
2019-04-01T12:02:23.192Z,5.37
2019-04-01T12:04:50.514Z,7.13
2019-04-01T12:07:18.189Z,4.03
2019-04-01T12:09:45.588Z,3.63
2019-04-01T12:12:23.443Z,3.60
2019-04-01T12:14:42.020Z,5.20
2019-04-01T12:17:09.459Z,3.40
2019-04-01T12:19:36.804Z,3.43
2019-04-01T12:22:04.205Z,3.77
2019-04-01T12:24:31.515Z,2.73
2019-04-01T12:26:58.858Z,5.23
2019-04-01T12:29:26.236Z,5.63
2019-04-01T12:31:53.593Z,4.77
2019-04-01T12:34:21.446Z,7.13
2019-04-01T12:36:49.278Z,11.07
2019-04-01T12:39:16.838Z,4.30
2019-04-01T12:41:44.234Z,4.07
2019-04-01T12:44:11.613Z,3.80
2019-04-01T12:46:38.974Z,7.27
2019-04-01T12:49:06.276Z,5.27
2019-04-01T12:51:33.632Z,4.53
2019-04-01T12:54:00.938Z,4.30
2019-04-01T12:56:28.254Z,2.37
2019-04-01T12:58:55.725Z,5.27
2019-04-01T13:01:23.102Z,2.77
2019-04-01T13:03:50.418Z,4.07
2019-04-01T13:06:17.775Z,1.93
2019-04-01T13:08:45.094Z,2.20
2019-04-01T13:11:12.407Z,6.23
2019-04-01T13:13:39.846Z,3.23
2019-04-01T13:16:09.020Z,2.97
2019-04-01T13:18:38.142Z,2.67
2019-04-01T13:21:05.126Z,3.03
2019-04-01T13:23:32.540Z,2.53
2019-04-01T13:25:59.874Z,2.50
2019-04-01T13:28:27.253Z,4.00
2019-04-01T13:30:55.204Z,1.67
2019-04-01T13:33:23.160Z,1.43
2019-04-01T13:35:50.606Z,4.20
2019-04-01T13:38:17.976Z,1.57
2019-04-01T13:40:45.289Z,3.03
2019-04-01T13:43:13.237Z,1.80
2019-04-01T13:45:41.679Z,3.17
2019-04-01T13:48:08.979Z,4.20
2019-04-01T13:50:36.318Z,1.30
2019-04-01T13:53:03.640Z,3.03
2019-04-01T13:55:31.049Z,1.97
2019-04-01T13:57:58.444Z,1.30
2019-04-01T14:00:27.469Z,2.93
2019-04-01T14:02:54.992Z,2.73
2019-04-01T14:05:22.292Z,0.90
2019-04-01T14:07:49.740Z,2.57
2019-04-01T14:10:17.129Z,2.50
2019-04-01T14:12:44.504Z,2.00
2019-04-01T14:15:11.948Z,2.13
2019-04-01T14:17:39.254Z,2.57
2019-04-01T14:20:06.559Z,1.83
2019-04-01T14:22:33.988Z,3.20
2019-04-01T14:25:01.390Z,2.13
2019-04-01T14:27:28.700Z,3.83
2019-04-01T14:29:56.034Z,2.83
2019-04-01T14:32:24.032Z,3.07
2019-04-01T14:34:51.438Z,3.63
2019-04-01T14:37:25.246Z,1.93
2019-04-01T14:39:47.830Z,4.60
2019-04-01T14:42:15.161Z,4.80
2019-04-01T14:44:42.481Z,5.70
2019-04-01T14:47:09.845Z,4.03
2019-04-01T14:49:37.187Z,1.77
2019-04-01T14:52:04.498Z,2.07
2019-04-01T14:54:32.106Z,1.03
2019-04-01T14:56:59.546Z,2.50
2019-04-01T14:59:27.220Z,4.17
2019-04-01T15:01:54.634Z,5.03
2019-04-01T15:04:21.941Z,4.23
2019-04-01T15:06:49.372Z,5.20
2019-04-01T15:09:17.483Z,2.77
2019-04-01T15:11:45.100Z,3.30
2019-04-01T15:14:12.415Z,1.40
2019-04-01T15:16:39.769Z,2.33
2019-04-01T15:19:07.184Z,3.17
2019-04-01T15:21:34.499Z,1.47
2019-04-01T15:24:01.839Z,3.53
2019-04-01T15:26:29.150Z,4.83
2019-04-01T15:28:56.503Z,1.47
2019-04-01T15:31:25.223Z,1.83
2019-04-01T15:33:52.718Z,1.97
2019-04-01T15:36:20.063Z,2.20
2019-04-01T15:38:47.402Z,2.93
2019-04-01T15:41:16.063Z,3.80
2019-04-01T15:43:43.591Z,1.20
2019-04-01T15:46:10.909Z,2.80
2019-04-01T15:48:38.358Z,3.63
2019-04-01T15:51:05.795Z,2.73
2019-04-01T15:53:34.738Z,2.13
2019-04-01T15:56:02.288Z,6.27
2019-04-01T15:58:29.766Z,3.63
2019-04-01T16:00:57.146Z,3.20
2019-04-01T16:03:24.492Z,4.43
2019-04-01T16:05:51.889Z,5.23
2019-04-01T16:08:19.223Z,2.90
2019-04-01T16:10:46.575Z,5.20
2019-04-01T16:13:14.332Z,5.00
2019-04-01T16:15:42.180Z,4.37
2019-04-01T16:18:09.562Z,1.67
2019-04-01T16:20:36.883Z,4.47
2019-04-01T16:23:04.202Z,5.37
2019-04-01T16:25:31.545Z,4.57
2019-04-01T16:27:58.897Z,5.07
2019-04-01T16:30:27.154Z,3.77
2019-04-01T16:32:54.813Z,3.33
2019-04-01T16:35:22.194Z,2.10
2019-04-01T16:37:49.499Z,1.97
2019-04-01T16:40:18.146Z,4.10
2019-04-01T16:42:45.908Z,3.00
2019-04-01T16:45:13.634Z,3.10
2019-04-01T16:47:41.259Z,3.90
2019-04-01T16:50:08.747Z,7.43
2019-04-01T16:52:36.148Z,3.10
2019-04-01T16:55:06.770Z,4.53
2019-04-01T16:57:34.797Z,2.40
2019-04-01T17:00:02.337Z,3.90
2019-04-01T17:02:32.814Z,4.00
2019-04-01T17:05:00.352Z,3.90
2019-04-01T17:07:27.852Z,4.17
2019-04-01T17:09:58.090Z,6.13
2019-04-01T17:12:24.290Z,5.93
2019-04-01T17:14:52.892Z,4.53
2019-04-01T17:17:20.405Z,5.77
2019-04-01T17:19:47.850Z,5.20
2019-04-01T17:22:15.174Z,4.67
2019-04-01T17:24:45.689Z,6.60
2019-04-01T17:27:11.515Z,2.57
2019-04-01T17:29:39.302Z,5.47
2019-04-01T17:32:06.783Z,3.20
2019-04-01T17:34:34.162Z,5.57
2019-04-01T17:37:01.564Z,4.57
2019-04-01T17:39:28.935Z,8.60
2019-04-01T17:41:56.323Z,6.37
2019-04-01T17:44:23.667Z,6.30
2019-04-01T17:46:51.109Z,8.43
2019-04-01T17:49:18.698Z,2.90
2019-04-01T17:51:46.045Z,7.17
2019-04-01T17:54:13.470Z,6.30
2019-04-01T17:56:40.811Z,8.23
2019-04-01T17:59:08.275Z,6.87
2019-04-01T18:01:35.532Z,7.43
2019-04-01T18:04:02.871Z,10.60
2019-04-01T18:06:30.230Z,10.27
2019-04-01T18:08:57.541Z,11.03
2019-04-01T18:11:25.253Z,13.60
2019-04-01T18:13:53.731Z,9.60
2019-04-01T18:16:21.041Z,9.77
2019-04-01T18:18:48.404Z,7.80
2019-04-01T18:21:15.823Z,13.17
2019-04-01T18:23:43.167Z,10.17
2019-04-01T18:26:10.568Z,14.00
2019-04-01T18:28:38.001Z,12.00
2019-04-01T18:31:05.333Z,11.93
2019-04-01T18:33:32.723Z,11.33
2019-04-01T18:36:00.082Z,13.90
2019-04-01T18:38:27.396Z,9.60
2019-04-01T18:40:54.719Z,12.03
2019-04-01T18:43:22.077Z,14.37
2019-04-01T18:45:51.078Z,12.37
2019-04-01T18:48:19.380Z,15.57
2019-04-01T18:50:47.311Z,21.23
2019-04-01T18:53:14.660Z,19.80
2019-04-01T18:55:41.977Z,24.30
2019-04-01T18:58:09.402Z,19.87
2019-04-01T19:00:37.221Z,21.60
2019-04-01T19:03:04.641Z,24.33
2019-04-01T19:05:31.996Z,19.73
2019-04-01T19:07:59.350Z,25.07
2019-04-01T19:10:26.749Z,22.87
2019-04-01T19:13:05.263Z,23.00
2019-04-01T19:15:23.496Z,21.17
2019-04-01T19:17:51.533Z,24.20
2019-04-01T19:20:18.882Z,23.47
2019-04-01T19:22:46.243Z,22.87
2019-04-01T19:25:13.558Z,23.73
2019-04-01T19:27:40.910Z,20.70
2019-04-01T19:30:08.549Z,24.00
2019-04-01T19:32:35.928Z,23.93
2019-04-01T19:35:04.950Z,20.27
2019-04-01T19:37:33.816Z,26.60
2019-04-01T19:40:01.454Z,25.87
2019-04-01T19:42:28.827Z,29.70
2019-04-01T19:44:56.207Z,26.83
2019-04-01T19:47:23.649Z,23.40
2019-04-01T19:49:50.979Z,23.20
2019-04-01T19:52:18.438Z,28.97
2019-04-01T19:54:45.761Z,25.33
2019-04-01T19:57:13.212Z,24.17
2019-04-01T19:59:41.024Z,20.80
2019-04-01T20:02:09.741Z,21.00
2019-04-01T20:04:37.318Z,23.57
2019-04-01T20:07:04.705Z,23.37
2019-04-01T20:09:32.053Z,20.33
2019-04-01T20:11:59.443Z,24.97
2019-04-01T20:14:26.842Z,17.40
2019-04-01T20:16:54.463Z,16.00
2019-04-01T20:19:21.835Z,16.93
2019-04-01T20:21:49.360Z,16.30
2019-04-01T20:24:16.720Z,19.63
2019-04-01T20:26:44.050Z,19.60
2019-04-01T20:29:11.582Z,16.60
2019-04-01T20:31:39.130Z,14.80
2019-04-01T20:34:19.157Z,18.47
2019-04-01T20:36:37.148Z,18.30
2019-04-01T20:39:06.257Z,16.53
2019-04-01T20:41:33.577Z,14.30
2019-04-01T20:44:00.950Z,14.83
2019-04-01T20:46:28.353Z,15.70
2019-04-01T20:48:55.695Z,17.07
2019-04-01T20:51:23.154Z,18.07
2019-04-01T20:53:51.334Z,23.43
2019-04-01T20:56:20.114Z,21.33
2019-04-01T20:58:47.765Z,13.80
2019-04-01T21:01:15.217Z,15.77
2019-04-01T21:03:42.597Z,17.03
2019-04-01T21:06:10.120Z,18.37
2019-04-01T21:08:38.102Z,15.97
2019-04-01T21:11:05.545Z,18.87
2019-04-01T21:13:32.920Z,18.03
2019-04-01T21:16:00.240Z,19.23
2019-04-01T21:18:27.638Z,21.23
2019-04-01T21:20:55.002Z,16.80
2019-04-01T21:23:22.424Z,16.77
2019-04-01T21:25:49.817Z,18.73
2019-04-01T21:28:17.341Z,17.87
2019-04-01T21:30:44.793Z,16.07
2019-04-01T21:33:12.114Z,13.50
2019-04-01T21:35:39.516Z,17.57
2019-04-01T21:38:06.901Z,14.57
2019-04-01T21:40:34.263Z,12.93
2019-04-01T21:43:03.232Z,14.87
2019-04-01T21:45:30.892Z,11.80
2019-04-01T21:47:58.226Z,16.87
2019-04-01T21:50:25.523Z,14.40
2019-04-01T21:52:52.883Z,16.40
2019-04-01T21:55:20.200Z,11.50
2019-04-01T21:57:47.746Z,10.40
2019-04-01T22:00:18.019Z,12.47
2019-04-01T22:02:45.522Z,11.27
2019-04-01T22:05:12.901Z,12.57
2019-04-01T22:07:41.898Z,14.87
2019-04-01T22:10:09.420Z,13.67
2019-04-01T22:12:36.812Z,13.03
2019-04-01T22:15:04.766Z,11.40
2019-04-01T22:17:32.172Z,8.93
2019-04-01T22:19:59.521Z,10.27
2019-04-01T22:22:26.879Z,11.63
2019-04-01T22:24:54.290Z,11.67
2019-04-01T22:27:21.614Z,15.77
2019-04-01T22:29:49.300Z,13.17
2019-04-01T22:32:16.736Z,12.03
2019-04-01T22:34:44.123Z,10.93
2019-04-01T22:37:11.444Z,11.47
2019-04-01T22:39:38.800Z,9.73
2019-04-01T22:42:06.191Z,13.57
2019-04-01T22:44:33.556Z,7.77
2019-04-01T22:47:00.908Z,9.90
2019-04-01T22:49:28.225Z,10.53
2019-04-01T22:51:55.529Z,7.63
2019-04-01T22:54:22.872Z,7.57
2019-04-01T22:56:50.194Z,10.50
2019-04-01T22:59:17.650Z,8.40
2019-04-01T23:01:45.066Z,7.70
2019-04-01T23:04:12.696Z,7.60
2019-04-01T23:06:40.056Z,8.87
2019-04-01T23:09:07.388Z,7.63
2019-04-01T23:11:34.768Z,7.93
2019-04-01T23:14:02.269Z,12.87
2019-04-01T23:16:29.637Z,10.87
2019-04-01T23:18:57.031Z,10.67
2019-04-01T23:21:24.431Z,9.10
2019-04-01T23:23:51.822Z,12.27
2019-04-01T23:26:19.174Z,16.83
2019-04-01T23:28:46.523Z,9.80
2019-04-01T23:31:13.928Z,8.67
2019-04-01T23:33:41.264Z,8.60
2019-04-01T23:36:08.608Z,6.93
2019-04-01T23:38:36.271Z,10.63
2019-04-01T23:41:04.201Z,9.87
2019-04-01T23:43:31.578Z,10.73
2019-04-01T23:45:59.014Z,9.67
2019-04-01T23:48:26.396Z,10.50
2019-04-01T23:50:53.730Z,16.93
2019-04-01T23:53:21.084Z,11.93
2019-04-01T23:55:48.410Z,12.70
2019-04-01T23:58:15.717Z,7.33
